createdAt,value
2023-05-11T00:00:03.000Z,7.580645161290317
2023-05-11T00:01:05.000Z,7.580645161290317
2023-05-11T00:02:07.000Z,7.580645161290317
2023-05-11T00:03:10.000Z,7.580645161290317
2023-05-11T00:04:12.000Z,7.580645161290317
2023-05-11T00:05:14.000Z,7.48387096774193
2023-05-11T00:06:16.000Z,7.580645161290317
2023-05-11T00:07:18.000Z,7.580645161290317
2023-05-11T00:08:20.000Z,7.580645161290317
2023-05-11T00:09:22.000Z,7.580645161290317
2023-05-11T00:10:25.000Z,7.580645161290317
2023-05-11T00:11:27.000Z,7.580645161290317
2023-05-11T00:12:29.000Z,7.580645161290317
2023-05-11T00:13:31.000Z,7.580645161290317
2023-05-11T00:14:33.000Z,7.580645161290317
2023-05-11T00:15:35.000Z,7.580645161290317
2023-05-11T00:16:37.000Z,7.580645161290317
2023-05-11T00:17:40.000Z,7.580645161290317
2023-05-11T00:18:42.000Z,7.48387096774193
2023-05-11T00:19:44.000Z,7.580645161290317
2023-05-11T00:20:46.000Z,7.580645161290317
2023-05-11T00:21:48.000Z,7.580645161290317
2023-05-11T00:22:50.000Z,7.580645161290317
2023-05-11T00:23:52.000Z,7.580645161290317
2023-05-11T00:24:55.000Z,7.580645161290317
2023-05-11T00:25:57.000Z,7.48387096774193
2023-05-11T00:26:59.000Z,7.580645161290317
2023-05-11T00:28:01.000Z,7.580645161290317
2023-05-11T00:29:03.000Z,7.580645161290317
2023-05-11T00:30:05.000Z,7.580645161290317
2023-05-11T00:31:07.000Z,7.580645161290317
2023-05-11T00:32:09.000Z,7.48387096774193
2023-05-11T00:33:12.000Z,7.580645161290317
2023-05-11T00:34:14.000Z,7.580645161290317
2023-05-11T00:35:16.000Z,7.580645161290317
2023-05-11T00:36:18.000Z,7.580645161290317
2023-05-11T00:37:20.000Z,7.580645161290317
2023-05-11T00:38:22.000Z,7.580645161290317
2023-05-11T00:39:24.000Z,7.580645161290317
2023-05-11T00:40:26.000Z,7.48387096774193
2023-05-11T00:41:28.000Z,7.580645161290317
2023-05-11T00:42:31.000Z,7.580645161290317
2023-05-11T00:43:33.000Z,7.580645161290317
2023-05-11T00:44:35.000Z,7.580645161290317
2023-05-11T00:45:37.000Z,7.580645161290317
2023-05-11T00:46:39.000Z,7.580645161290317
2023-05-11T00:47:41.000Z,7.580645161290317
2023-05-11T00:48:43.000Z,7.580645161290317
2023-05-11T00:49:46.000Z,7.580645161290317
2023-05-11T00:50:48.000Z,7.580645161290317
2023-05-11T00:51:50.000Z,7.580645161290317
2023-05-11T00:52:52.000Z,7.580645161290317
2023-05-11T00:53:54.000Z,7.580645161290317
2023-05-11T00:54:56.000Z,7.48387096774193
2023-05-11T00:55:58.000Z,7.580645161290317
2023-05-11T00:57:00.000Z,7.580645161290317
2023-05-11T00:58:03.000Z,7.580645161290317
2023-05-11T00:59:05.000Z,7.580645161290317
2023-05-11T01:00:07.000Z,7.580645161290317
2023-05-11T01:01:09.000Z,7.580645161290317
2023-05-11T01:02:11.000Z,7.580645161290317
2023-05-11T01:03:13.000Z,7.580645161290317
2023-05-11T01:04:15.000Z,7.580645161290317
2023-05-11T01:05:17.000Z,7.580645161290317
2023-05-11T01:06:20.000Z,7.580645161290317
2023-05-11T01:07:22.000Z,7.580645161290317
2023-05-11T01:08:24.000Z,7.580645161290317
2023-05-11T01:09:26.000Z,7.580645161290317
2023-05-11T01:10:28.000Z,7.580645161290317
2023-05-11T01:11:30.000Z,7.580645161290317
2023-05-11T01:12:32.000Z,7.580645161290317
2023-05-11T01:13:35.000Z,7.580645161290317
2023-05-11T01:14:37.000Z,7.580645161290317
2023-05-11T01:15:39.000Z,7.580645161290317
2023-05-11T01:16:41.000Z,7.580645161290317
2023-05-11T01:17:43.000Z,7.580645161290317
2023-05-11T01:18:45.000Z,7.580645161290317
2023-05-11T01:19:47.000Z,7.580645161290317
2023-05-11T01:20:50.000Z,7.580645161290317
2023-05-11T01:21:52.000Z,7.580645161290317
2023-05-11T01:22:54.000Z,7.580645161290317
2023-05-11T01:23:56.000Z,7.580645161290317
2023-05-11T01:24:58.000Z,7.580645161290317
2023-05-11T01:26:00.000Z,7.580645161290317
2023-05-11T01:27:02.000Z,7.580645161290317
2023-05-11T01:28:04.000Z,7.580645161290317
2023-05-11T01:29:07.000Z,7.580645161290317
2023-05-11T01:30:09.000Z,7.48387096774193
2023-05-11T01:31:11.000Z,7.580645161290317
2023-05-11T01:32:13.000Z,7.580645161290317
2023-05-11T01:33:15.000Z,7.580645161290317
2023-05-11T01:34:17.000Z,7.580645161290317
2023-05-11T01:35:19.000Z,7.580645161290317
2023-05-11T01:36:21.000Z,7.580645161290317
2023-05-11T01:37:24.000Z,7.580645161290317
2023-05-11T01:38:26.000Z,7.580645161290317
2023-05-11T01:39:28.000Z,7.580645161290317
2023-05-11T01:40:30.000Z,7.580645161290317
2023-05-11T01:41:32.000Z,7.580645161290317
2023-05-11T01:42:34.000Z,7.580645161290317
2023-05-11T01:43:36.000Z,7.580645161290317
2023-05-11T01:44:39.000Z,7.580645161290317
2023-05-11T01:45:41.000Z,7.580645161290317
2023-05-11T01:46:43.000Z,7.580645161290317
2023-05-11T01:47:45.000Z,7.580645161290317
2023-05-11T01:48:47.000Z,7.580645161290317
2023-05-11T01:49:49.000Z,7.580645161290317
2023-05-11T01:50:51.000Z,7.580645161290317
2023-05-11T01:51:53.000Z,7.580645161290317
2023-05-11T01:52:56.000Z,7.580645161290317
2023-05-11T01:53:58.000Z,7.580645161290317
2023-05-11T01:55:00.000Z,7.580645161290317
2023-05-11T01:56:02.000Z,7.580645161290317
2023-05-11T01:57:04.000Z,7.580645161290317
2023-05-11T01:58:06.000Z,7.580645161290317
2023-05-11T01:59:09.000Z,7.580645161290317
2023-05-11T02:00:11.000Z,7.580645161290317
2023-05-11T02:01:13.000Z,7.580645161290317
2023-05-11T02:02:15.000Z,7.580645161290317
2023-05-11T02:03:17.000Z,7.580645161290317
2023-05-11T02:04:19.000Z,7.580645161290317
2023-05-11T02:05:21.000Z,7.580645161290317
2023-05-11T02:06:23.000Z,7.580645161290317
2023-05-11T02:07:25.000Z,7.580645161290317
2023-05-11T02:08:28.000Z,7.580645161290317
2023-05-11T02:09:30.000Z,7.580645161290317
2023-05-11T02:10:32.000Z,7.580645161290317
2023-05-11T02:11:34.000Z,7.580645161290317
2023-05-11T02:12:36.000Z,7.580645161290317
2023-05-11T02:13:38.000Z,7.580645161290317
2023-05-11T02:14:40.000Z,7.580645161290317
2023-05-11T02:15:43.000Z,7.580645161290317
2023-05-11T02:16:45.000Z,7.580645161290317
2023-05-11T02:17:47.000Z,7.580645161290317
2023-05-11T02:18:49.000Z,7.580645161290317
2023-05-11T02:19:51.000Z,7.580645161290317
2023-05-11T02:20:53.000Z,7.580645161290317
2023-05-11T02:21:55.000Z,7.580645161290317
2023-05-11T02:22:58.000Z,7.580645161290317
2023-05-11T02:24:00.000Z,7.580645161290317
2023-05-11T02:25:02.000Z,7.580645161290317
2023-05-11T02:26:04.000Z,7.580645161290317
2023-05-11T02:27:06.000Z,7.580645161290317
2023-05-11T02:28:08.000Z,7.580645161290317
2023-05-11T02:29:10.000Z,7.580645161290317
2023-05-11T02:30:12.000Z,7.580645161290317
2023-05-11T02:31:15.000Z,7.580645161290317
2023-05-11T02:32:17.000Z,7.580645161290317
2023-05-11T02:33:19.000Z,7.580645161290317
2023-05-11T02:34:21.000Z,7.580645161290317
2023-05-11T02:35:23.000Z,7.580645161290317
2023-05-11T02:36:25.000Z,7.580645161290317
2023-05-11T02:37:28.000Z,7.580645161290317
2023-05-11T02:38:30.000Z,7.580645161290317
2023-05-11T02:39:32.000Z,7.580645161290317
2023-05-11T02:40:34.000Z,7.580645161290317
2023-05-11T02:41:36.000Z,7.580645161290317
2023-05-11T02:42:38.000Z,7.677419354838704
2023-05-11T02:43:40.000Z,7.580645161290317
2023-05-11T02:44:43.000Z,7.580645161290317
2023-05-11T02:45:45.000Z,7.580645161290317
2023-05-11T02:46:47.000Z,7.580645161290317
2023-05-11T02:47:49.000Z,7.580645161290317
2023-05-11T02:48:51.000Z,7.580645161290317
2023-05-11T02:49:53.000Z,7.580645161290317
2023-05-11T02:50:55.000Z,7.580645161290317
2023-05-11T02:51:58.000Z,7.677419354838704
2023-05-11T02:53:00.000Z,7.580645161290317
2023-05-11T02:54:02.000Z,7.580645161290317
2023-05-11T02:55:04.000Z,7.580645161290317
2023-05-11T02:56:06.000Z,7.580645161290317
2023-05-11T02:57:08.000Z,7.580645161290317
2023-05-11T02:58:10.000Z,7.580645161290317
2023-05-11T02:59:12.000Z,7.580645161290317
2023-05-11T03:00:15.000Z,7.580645161290317
2023-05-11T03:01:17.000Z,7.580645161290317
2023-05-11T03:02:19.000Z,7.580645161290317
2023-05-11T03:03:21.000Z,7.580645161290317
2023-05-11T03:04:23.000Z,7.580645161290317
2023-05-11T03:05:25.000Z,7.580645161290317
2023-05-11T03:06:27.000Z,7.580645161290317
2023-05-11T03:07:30.000Z,7.580645161290317
2023-05-11T03:08:32.000Z,7.580645161290317
2023-05-11T03:09:34.000Z,7.580645161290317
2023-05-11T03:10:36.000Z,7.580645161290317
2023-05-11T03:11:38.000Z,7.580645161290317
2023-05-11T03:12:40.000Z,7.580645161290317
2023-05-11T03:13:42.000Z,7.580645161290317
2023-05-11T03:14:44.000Z,7.677419354838704
2023-05-11T03:15:47.000Z,7.580645161290317
2023-05-11T03:16:49.000Z,7.580645161290317
2023-05-11T03:17:51.000Z,7.580645161290317
2023-05-11T03:18:53.000Z,7.580645161290317
2023-05-11T03:19:55.000Z,7.677419354838704
2023-05-11T03:20:57.000Z,7.580645161290317
2023-05-11T03:21:59.000Z,7.580645161290317
2023-05-11T03:23:02.000Z,7.580645161290317
2023-05-11T03:24:04.000Z,7.677419354838704
2023-05-11T03:25:06.000Z,7.677419354838704
2023-05-11T03:26:08.000Z,7.580645161290317
2023-05-11T03:27:10.000Z,7.677419354838704
2023-05-11T03:28:12.000Z,7.677419354838704
2023-05-11T03:29:14.000Z,7.677419354838704
2023-05-11T03:30:17.000Z,7.580645161290317
2023-05-11T03:31:19.000Z,7.580645161290317
2023-05-11T03:32:21.000Z,7.580645161290317
2023-05-11T03:33:23.000Z,7.677419354838704
2023-05-11T03:34:25.000Z,7.580645161290317
2023-05-11T03:35:27.000Z,7.580645161290317
2023-05-11T03:36:29.000Z,7.677419354838704
2023-05-11T03:37:31.000Z,7.677419354838704
2023-05-11T03:38:34.000Z,7.580645161290317
2023-05-11T03:39:36.000Z,7.580645161290317
2023-05-11T03:40:38.000Z,7.677419354838704
2023-05-11T03:41:40.000Z,7.580645161290317
2023-05-11T03:42:42.000Z,7.677419354838704
2023-05-11T03:43:44.000Z,7.677419354838704
2023-05-11T03:44:46.000Z,7.580645161290317
2023-05-11T03:45:48.000Z,7.677419354838704
2023-05-11T03:46:51.000Z,7.677419354838704
2023-05-11T03:47:53.000Z,7.677419354838704
2023-05-11T03:48:55.000Z,7.677419354838704
2023-05-11T03:49:57.000Z,7.580645161290317
2023-05-11T03:50:59.000Z,7.580645161290317
2023-05-11T03:52:01.000Z,7.580645161290317
2023-05-11T03:53:04.000Z,7.580645161290317
2023-05-11T03:54:06.000Z,7.677419354838704
2023-05-11T03:55:08.000Z,7.580645161290317
2023-05-11T03:56:10.000Z,7.677419354838704
2023-05-11T03:57:12.000Z,7.677419354838704
2023-05-11T03:58:14.000Z,7.677419354838704
2023-05-11T03:59:16.000Z,7.580645161290317
2023-05-11T04:00:18.000Z,7.677419354838704
2023-05-11T04:01:21.000Z,7.580645161290317
2023-05-11T04:02:23.000Z,7.580645161290317
2023-05-11T04:03:25.000Z,7.677419354838704
2023-05-11T04:04:27.000Z,7.580645161290317
2023-05-11T04:05:29.000Z,7.580645161290317
2023-05-11T04:06:31.000Z,7.677419354838704
2023-05-11T04:07:33.000Z,7.677419354838704
2023-05-11T04:08:36.000Z,7.580645161290317
2023-05-11T04:09:38.000Z,7.677419354838704
2023-05-11T04:10:40.000Z,7.677419354838704
2023-05-11T04:11:42.000Z,7.677419354838704
2023-05-11T04:12:44.000Z,7.580645161290317
2023-05-11T04:13:46.000Z,7.677419354838704
2023-05-11T04:14:48.000Z,7.677419354838704
2023-05-11T04:15:50.000Z,7.580645161290317
2023-05-11T04:16:53.000Z,7.677419354838704
2023-05-11T04:17:55.000Z,7.580645161290317
2023-05-11T04:18:57.000Z,7.677419354838704
2023-05-11T04:19:59.000Z,7.677419354838704
2023-05-11T04:21:01.000Z,7.677419354838704
2023-05-11T04:22:03.000Z,7.580645161290317
2023-05-11T04:23:05.000Z,7.677419354838704
2023-05-11T04:24:08.000Z,7.677419354838704
2023-05-11T04:25:10.000Z,7.677419354838704
2023-05-11T04:26:12.000Z,7.677419354838704
2023-05-11T04:27:14.000Z,7.677419354838704
2023-05-11T04:28:16.000Z,7.677419354838704
2023-05-11T04:29:18.000Z,7.677419354838704
2023-05-11T04:30:20.000Z,7.580645161290317
2023-05-11T04:31:23.000Z,7.677419354838704
2023-05-11T04:32:25.000Z,7.677419354838704
2023-05-11T04:33:27.000Z,7.677419354838704
2023-05-11T04:34:29.000Z,7.677419354838704
2023-05-11T04:35:31.000Z,7.580645161290317
2023-05-11T04:36:33.000Z,7.677419354838704
2023-05-11T04:37:35.000Z,7.677419354838704
2023-05-11T04:38:37.000Z,7.677419354838704
2023-05-11T04:39:40.000Z,7.677419354838704
2023-05-11T04:40:42.000Z,7.677419354838704
2023-05-11T04:41:44.000Z,7.677419354838704
2023-05-11T04:42:46.000Z,7.677419354838704
2023-05-11T04:43:48.000Z,7.580645161290317
2023-05-11T04:44:50.000Z,7.677419354838704
2023-05-11T04:45:52.000Z,7.677419354838704
2023-05-11T04:46:54.000Z,7.677419354838704
2023-05-11T04:47:57.000Z,7.580645161290317
2023-05-11T04:48:59.000Z,7.677419354838704
2023-05-11T04:50:01.000Z,7.677419354838704
2023-05-11T04:51:03.000Z,7.677419354838704
2023-05-11T04:52:05.000Z,7.677419354838704
2023-05-11T04:53:07.000Z,7.580645161290317
2023-05-11T04:54:09.000Z,7.677419354838704
2023-05-11T04:55:12.000Z,7.677419354838704
2023-05-11T04:56:14.000Z,7.677419354838704
2023-05-11T04:57:16.000Z,7.677419354838704
2023-05-11T04:58:18.000Z,7.677419354838704
2023-05-11T04:59:20.000Z,7.677419354838704
2023-05-11T05:00:22.000Z,7.677419354838704
2023-05-11T05:01:24.000Z,7.677419354838704
2023-05-11T05:02:26.000Z,7.677419354838704
2023-05-11T05:03:29.000Z,7.677419354838704
2023-05-11T05:04:31.000Z,7.677419354838704
2023-05-11T05:05:33.000Z,7.677419354838704
2023-05-11T05:06:35.000Z,7.677419354838704
2023-05-11T05:07:37.000Z,7.677419354838704
2023-05-11T05:08:39.000Z,7.677419354838704
2023-05-11T05:09:42.000Z,7.677419354838704
2023-05-11T05:10:44.000Z,7.677419354838704
2023-05-11T05:11:46.000Z,7.580645161290317
2023-05-11T05:12:48.000Z,7.677419354838704
2023-05-11T05:13:50.000Z,7.677419354838704
2023-05-11T05:14:52.000Z,7.677419354838704
2023-05-11T05:15:54.000Z,7.677419354838704
2023-05-11T05:16:56.000Z,7.677419354838704
2023-05-11T05:17:59.000Z,7.677419354838704
2023-05-11T05:19:01.000Z,7.677419354838704
2023-05-11T05:20:03.000Z,7.677419354838704
2023-05-11T05:21:05.000Z,7.580645161290317
2023-05-11T05:22:07.000Z,7.677419354838704
2023-05-11T05:23:09.000Z,7.677419354838704
2023-05-11T05:24:11.000Z,7.677419354838704
2023-05-11T05:25:14.000Z,7.677419354838704
2023-05-11T05:26:16.000Z,7.677419354838704
2023-05-11T05:27:18.000Z,7.580645161290317
2023-05-11T05:28:20.000Z,7.580645161290317
2023-05-11T05:29:22.000Z,7.677419354838704
2023-05-11T05:30:24.000Z,7.580645161290317
2023-05-11T05:31:27.000Z,7.677419354838704
2023-05-11T05:32:29.000Z,7.677419354838704
2023-05-11T05:33:31.000Z,7.677419354838704
2023-05-11T05:34:33.000Z,7.677419354838704
2023-05-11T05:35:35.000Z,7.677419354838704
2023-05-11T05:36:37.000Z,7.677419354838704
2023-05-11T05:37:39.000Z,7.677419354838704
2023-05-11T05:38:41.000Z,7.677419354838704
2023-05-11T05:39:44.000Z,7.677419354838704
2023-05-11T05:40:46.000Z,7.677419354838704
2023-05-11T05:41:48.000Z,7.677419354838704
2023-05-11T05:42:50.000Z,7.677419354838704
2023-05-11T05:43:52.000Z,7.677419354838704
2023-05-11T05:44:54.000Z,7.677419354838704
2023-05-11T05:45:56.000Z,7.677419354838704
2023-05-11T05:46:58.000Z,7.677419354838704
2023-05-11T05:48:01.000Z,7.677419354838704
2023-05-11T05:49:03.000Z,7.677419354838704
2023-05-11T05:50:05.000Z,7.677419354838704
2023-05-11T05:51:07.000Z,7.677419354838704
2023-05-11T05:52:09.000Z,7.677419354838704
2023-05-11T05:53:11.000Z,7.677419354838704
2023-05-11T05:54:14.000Z,7.677419354838704
2023-05-11T05:55:16.000Z,7.677419354838704
2023-05-11T05:56:18.000Z,7.677419354838704
2023-05-11T05:57:20.000Z,7.677419354838704
2023-05-11T05:58:22.000Z,7.677419354838704
2023-05-11T05:59:24.000Z,7.677419354838704
2023-05-11T06:00:26.000Z,7.677419354838704
2023-05-11T06:01:28.000Z,7.677419354838704
2023-05-11T06:02:31.000Z,7.677419354838704
2023-05-11T06:03:33.000Z,7.677419354838704
2023-05-11T06:04:35.000Z,7.677419354838704
2023-05-11T06:05:37.000Z,7.677419354838704
2023-05-11T06:06:39.000Z,7.677419354838704
2023-05-11T06:07:41.000Z,7.677419354838704
2023-05-11T06:08:43.000Z,7.677419354838704
2023-05-11T06:09:46.000Z,7.677419354838704
2023-05-11T06:10:48.000Z,7.677419354838704
2023-05-11T06:11:50.000Z,7.677419354838704
2023-05-11T06:12:52.000Z,7.677419354838704
2023-05-11T06:13:54.000Z,7.677419354838704
2023-05-11T06:14:56.000Z,7.677419354838704
2023-05-11T06:15:58.000Z,7.677419354838704
2023-05-11T06:17:00.000Z,7.677419354838704
2023-05-11T06:18:03.000Z,7.677419354838704
2023-05-11T06:19:05.000Z,7.677419354838704
2023-05-11T06:20:07.000Z,7.677419354838704
2023-05-11T06:21:09.000Z,7.677419354838704
2023-05-11T06:22:11.000Z,7.677419354838704
2023-05-11T06:23:13.000Z,7.677419354838704
2023-05-11T06:24:15.000Z,7.677419354838704
2023-05-11T06:25:18.000Z,7.677419354838704
2023-05-11T06:26:20.000Z,7.677419354838704
2023-05-11T06:27:22.000Z,7.677419354838704
2023-05-11T06:28:24.000Z,7.677419354838704
2023-05-11T06:29:26.000Z,7.677419354838704
2023-05-11T06:30:28.000Z,7.677419354838704
2023-05-11T06:31:30.000Z,7.677419354838704
2023-05-11T06:32:32.000Z,7.677419354838704
2023-05-11T06:33:35.000Z,7.677419354838704
2023-05-11T06:34:37.000Z,7.580645161290317
2023-05-11T06:35:39.000Z,7.677419354838704
2023-05-11T06:36:41.000Z,7.677419354838704
2023-05-11T06:37:43.000Z,7.677419354838704
2023-05-11T06:38:45.000Z,7.677419354838704
2023-05-11T06:39:47.000Z,7.677419354838704
2023-05-11T06:40:49.000Z,7.677419354838704
2023-05-11T06:41:52.000Z,7.677419354838704
2023-05-11T06:42:54.000Z,7.677419354838704
2023-05-11T06:43:56.000Z,7.677419354838704
2023-05-11T06:44:58.000Z,7.677419354838704
2023-05-11T06:46:00.000Z,7.677419354838704
2023-05-11T06:47:02.000Z,7.677419354838704
2023-05-11T06:48:04.000Z,7.677419354838704
2023-05-11T06:49:07.000Z,7.677419354838704
2023-05-11T06:50:09.000Z,7.677419354838704
2023-05-11T06:51:11.000Z,7.677419354838704
2023-05-11T06:52:13.000Z,7.677419354838704
2023-05-11T06:53:15.000Z,7.677419354838704
2023-05-11T06:54:17.000Z,7.677419354838704
2023-05-11T06:55:19.000Z,7.677419354838704
2023-05-11T06:56:21.000Z,7.677419354838704
2023-05-11T06:57:24.000Z,7.677419354838704
2023-05-11T06:58:26.000Z,7.677419354838704
2023-05-11T06:59:28.000Z,7.677419354838704
2023-05-11T07:00:30.000Z,7.677419354838704
2023-05-11T07:01:32.000Z,7.677419354838704
2023-05-11T07:02:34.000Z,7.677419354838704
2023-05-11T07:03:36.000Z,7.677419354838704
2023-05-11T07:04:39.000Z,7.677419354838704
2023-05-11T07:05:41.000Z,7.677419354838704
2023-05-11T07:06:43.000Z,7.677419354838704
2023-05-11T07:07:45.000Z,7.677419354838704
2023-05-11T07:08:47.000Z,7.677419354838704
2023-05-11T07:09:49.000Z,7.677419354838704
2023-05-11T07:10:51.000Z,7.677419354838704
2023-05-11T07:11:53.000Z,7.677419354838704
2023-05-11T07:12:56.000Z,7.677419354838704
2023-05-11T07:13:58.000Z,7.677419354838704
2023-05-11T07:15:00.000Z,7.677419354838704
2023-05-11T07:16:02.000Z,7.677419354838704
2023-05-11T07:17:04.000Z,7.774193548387091
2023-05-11T07:18:06.000Z,7.774193548387091
2023-05-11T07:19:08.000Z,7.774193548387091
2023-05-11T07:20:11.000Z,7.774193548387091
2023-05-11T07:21:13.000Z,7.774193548387091
2023-05-11T07:22:15.000Z,7.774193548387091
2023-05-11T07:23:17.000Z,7.870967741935478
2023-05-11T07:24:19.000Z,7.774193548387091
2023-05-11T07:25:21.000Z,7.870967741935478
2023-05-11T07:26:23.000Z,7.870967741935478
2023-05-11T07:27:26.000Z,7.870967741935478
2023-05-11T07:28:28.000Z,7.870967741935478
2023-05-11T07:29:30.000Z,7.870967741935478
2023-05-11T07:30:32.000Z,7.870967741935478
2023-05-11T07:31:34.000Z,7.870967741935478
2023-05-11T07:32:36.000Z,7.870967741935478
2023-05-11T07:33:38.000Z,7.870967741935478
2023-05-11T07:34:40.000Z,7.870967741935478
2023-05-11T07:35:43.000Z,7.870967741935478
2023-05-11T07:36:45.000Z,7.870967741935478
2023-05-11T07:37:47.000Z,7.870967741935478
2023-05-11T07:38:49.000Z,7.870967741935478
2023-05-11T07:39:51.000Z,7.870967741935478
2023-05-11T07:40:53.000Z,7.870967741935478
2023-05-11T07:41:55.000Z,7.870967741935478
2023-05-11T07:42:58.000Z,7.870967741935478
2023-05-11T07:44:00.000Z,7.870967741935478
2023-05-11T07:45:02.000Z,7.870967741935478
2023-05-11T07:46:04.000Z,7.870967741935478
2023-05-11T07:47:06.000Z,7.870967741935478
2023-05-11T07:48:08.000Z,8.064516129032253
2023-05-11T07:49:10.000Z,8.258064516129028
2023-05-11T07:50:13.000Z,8.354838709677416
2023-05-11T07:51:15.000Z,8.354838709677416
2023-05-11T07:52:17.000Z,8.451612903225804
2023-05-11T07:53:19.000Z,8.354838709677416
2023-05-11T07:54:21.000Z,8.451612903225804
2023-05-11T07:55:23.000Z,8.354838709677416
2023-05-11T07:56:25.000Z,8.354838709677416
2023-05-11T07:57:28.000Z,8.354838709677416
2023-05-11T07:58:30.000Z,8.354838709677416
2023-05-11T07:59:32.000Z,8.451612903225804
2023-05-11T08:00:34.000Z,8.354838709677416
2023-05-11T08:01:36.000Z,8.451612903225804
2023-05-11T08:02:38.000Z,8.354838709677416
2023-05-11T08:03:40.000Z,8.354838709677416
2023-05-11T08:04:43.000Z,8.451612903225804
2023-05-11T08:05:45.000Z,8.451612903225804
2023-05-11T08:06:47.000Z,8.451612903225804
2023-05-11T08:07:49.000Z,8.451612903225804
2023-05-11T08:08:51.000Z,8.451612903225804
2023-05-11T08:09:53.000Z,8.354838709677416
2023-05-11T08:10:55.000Z,8.451612903225804
2023-05-11T08:11:57.000Z,8.451612903225804
2023-05-11T08:13:00.000Z,8.451612903225804
2023-05-11T08:14:02.000Z,8.451612903225804
2023-05-11T08:15:04.000Z,8.451612903225804
2023-05-11T08:16:06.000Z,8.451612903225804
2023-05-11T08:17:08.000Z,8.451612903225804
2023-05-11T08:18:10.000Z,8.451612903225804
2023-05-11T08:19:13.000Z,8.451612903225804
2023-05-11T08:20:15.000Z,8.451612903225804
2023-05-11T08:21:17.000Z,8.354838709677416
2023-05-11T08:22:19.000Z,8.451612903225804
2023-05-11T08:23:21.000Z,8.451612903225804
2023-05-11T08:24:23.000Z,8.451612903225804
2023-05-11T08:25:25.000Z,8.451612903225804
2023-05-11T08:26:28.000Z,8.354838709677416
2023-05-11T08:27:30.000Z,8.354838709677416
2023-05-11T08:28:32.000Z,8.451612903225804
2023-05-11T08:29:34.000Z,8.451612903225804
2023-05-11T08:30:36.000Z,8.451612903225804
2023-05-11T08:31:38.000Z,8.451612903225804
2023-05-11T08:32:40.000Z,8.451612903225804
2023-05-11T08:33:42.000Z,8.451612903225804
2023-05-11T08:34:45.000Z,8.451612903225804
2023-05-11T08:35:47.000Z,8.451612903225804
2023-05-11T08:36:49.000Z,8.451612903225804
2023-05-11T08:37:51.000Z,8.451612903225804
2023-05-11T08:38:53.000Z,8.451612903225804
2023-05-11T08:39:55.000Z,8.451612903225804
2023-05-11T08:40:57.000Z,8.451612903225804
2023-05-11T08:41:59.000Z,8.451612903225804
2023-05-11T08:43:02.000Z,8.451612903225804
2023-05-11T08:44:04.000Z,8.451612903225804
2023-05-11T08:45:06.000Z,8.451612903225804
2023-05-11T08:46:08.000Z,8.451612903225804
2023-05-11T08:47:10.000Z,8.451612903225804
2023-05-11T08:48:12.000Z,8.451612903225804
2023-05-11T08:49:14.000Z,8.451612903225804
2023-05-11T08:50:17.000Z,8.548387096774192
2023-05-11T08:51:19.000Z,8.548387096774192
2023-05-11T08:52:21.000Z,8.451612903225804
2023-05-11T08:53:23.000Z,8.451612903225804
2023-05-11T08:54:25.000Z,8.548387096774192
2023-05-11T08:55:27.000Z,8.451612903225804
2023-05-11T08:56:29.000Z,8.548387096774192
2023-05-11T08:57:32.000Z,8.548387096774192
2023-05-11T08:58:34.000Z,8.548387096774192
2023-05-11T08:59:36.000Z,8.548387096774192
2023-05-11T09:00:38.000Z,8.64516129032258
2023-05-11T09:01:40.000Z,8.64516129032258
2023-05-11T09:02:42.000Z,8.548387096774192
2023-05-11T09:03:44.000Z,8.548387096774192
2023-05-11T09:04:47.000Z,8.548387096774192
2023-05-11T09:05:49.000Z,8.64516129032258
2023-05-11T09:06:51.000Z,8.64516129032258
2023-05-11T09:07:53.000Z,8.64516129032258
2023-05-11T09:08:55.000Z,8.64516129032258
2023-05-11T09:09:57.000Z,8.64516129032258
2023-05-11T09:10:59.000Z,8.64516129032258
2023-05-11T09:12:01.000Z,8.741935483870968
2023-05-11T09:13:04.000Z,8.64516129032258
2023-05-11T09:14:06.000Z,8.64516129032258
2023-05-11T09:15:08.000Z,8.64516129032258
2023-05-11T09:16:10.000Z,8.64516129032258
2023-05-11T09:17:12.000Z,8.64516129032258
2023-05-11T09:18:14.000Z,8.741935483870968
2023-05-11T09:19:16.000Z,8.935483870967744
2023-05-11T09:20:18.000Z,9.032258064516132
2023-05-11T09:21:21.000Z,9.032258064516132
2023-05-11T09:22:23.000Z,9.032258064516132
2023-05-11T09:23:25.000Z,9.032258064516132
2023-05-11T09:24:27.000Z,9.12903225806452
2023-05-11T09:25:29.000Z,9.12903225806452
2023-05-11T09:26:31.000Z,9.12903225806452
2023-05-11T09:27:33.000Z,9.225806451612907
2023-05-11T09:28:36.000Z,9.225806451612907
2023-05-11T09:29:38.000Z,9.225806451612907
2023-05-11T09:30:40.000Z,9.225806451612907
2023-05-11T09:31:42.000Z,9.225806451612907
2023-05-11T09:32:44.000Z,9.225806451612907
2023-05-11T09:33:46.000Z,9.225806451612907
2023-05-11T09:34:48.000Z,9.225806451612907
2023-05-11T09:35:51.000Z,9.225806451612907
2023-05-11T09:36:53.000Z,9.225806451612907